LFRB/BES METAR and TAF weather

Enter ICAO airport designator
Station Type Date Time Source
LFRB METAR 2022/12/08 13:30 UTC NOAA

LFRB 081330Z AUTO 06010KT CAVOK 07/00 Q1009 NOSIG


Station Type Date Time Source
LFRB Decoded METAR 2022/12/08 13:30 UTC NOAA

Brest, France (LFRB) 48-27N 004-25W 103M
Dec 08, 2022 - 08:30 AM EST / 2022.12.08 1330 UTC
Wind: from the ENE (060 degrees) at 12 MPH (10 KT):0
Visibility: greater than 7 mile(s):0
Temperature: 44 F (7 C)
Dew Point: 32 F (0 C)
Relative Humidity: 60%
Pressure (altimeter): 29.80 in. Hg (1009 hPa)
ob: LFRB 081330Z AUTO 06010KT CAVOK 07/00 Q1009 NOSIG
cycle: 13

Station Type Date Time Source
LFRB TAF 2022/12/08 12:42 UTC NOAA

TAF LFRB 081100Z 0812/0918 06005KT 9999 BKN030 PROB40
TEMPO 0820/0904 3000 BR PROB30
TEMPO 0821/0904 0800 FG VV/// PROB30
TEMPO 0904/0916 3000 SHRA BKN012 SCT030TCU

Example: see airport list